<?xml version="1.0" encoding="UTF-8" standalone="no" ?>
<gpx xmlns="http://www.topografix.com/GPX/1/1" xmlns:xsi="http://www.w3.org/2001/XMLSchema-instance" xsi:schemaLocation="http://www.topografix.com/GPX/1/1 http://www.topografix.com/GPX/1/1/gpx.xsd" version="1.1" creator="VisuGPX - https://www.visugpx.com">
  <metadata>
    <name>La Capelaine 2014 circuit 10kms</name>
    <desc><![CDATA[Le circuit de 10 kms de La Capelaine 2014]]></desc>
  </metadata>
  <trk>
    <name><![CDATA[13-AVR-14 12:46:53]]></name>
    <trkseg>
      <trkpt lat="44.59868" lon="0.89741">
        <ele>153.95</ele>
        <time>2014-04-13T09:52:19Z</time>
      </trkpt>
      <trkpt lat="44.59871" lon="0.89743">
        <ele>152.03</ele>
        <time>2014-04-13T09:52:44Z</time>
      </trkpt>
      <trkpt lat="44.59879" lon="0.89744">
        <ele>152.03</ele>
        <time>2014-04-13T09:52:51Z</time>
      </trkpt>
      <trkpt lat="44.59887" lon="0.89746">
        <ele>152.03</ele>
        <time>2014-04-13T09:52:55Z</time>
      </trkpt>
      <trkpt lat="44.59902" lon="0.89752">
        <ele>154.43</ele>
        <time>2014-04-13T09:53:00Z</time>
      </trkpt>
      <trkpt lat="44.59941" lon="0.89727">
        <ele>156.83</ele>
        <time>2014-04-13T09:53:13Z</time>
      </trkpt>
      <trkpt lat="44.5998" lon="0.897">
        <ele>157.31</ele>
        <time>2014-04-13T09:53:26Z</time>
      </trkpt>
      <trkpt lat="44.60007" lon="0.89646">
        <ele>158.75</ele>
        <time>2014-04-13T09:53:39Z</time>
      </trkpt>
      <trkpt lat="44.60013" lon="0.89553">
        <ele>160.68</ele>
        <time>2014-04-13T09:53:57Z</time>
      </trkpt>
      <trkpt lat="44.60017" lon="0.89532">
        <ele>161.64</ele>
        <time>2014-04-13T09:54:02Z</time>
      </trkpt>
      <trkpt lat="44.60038" lon="0.89519">
        <ele>161.64</ele>
        <time>2014-04-13T09:54:09Z</time>
      </trkpt>
      <trkpt lat="44.60059" lon="0.89504">
        <ele>162.12</ele>
        <time>2014-04-13T09:54:15Z</time>
      </trkpt>
      <trkpt lat="44.60057" lon="0.89488">
        <ele>164.04</ele>
        <time>2014-04-13T09:54:20Z</time>
      </trkpt>
      <trkpt lat="44.60017" lon="0.89471">
        <ele>166.93</ele>
        <time>2014-04-13T09:54:34Z</time>
      </trkpt>
      <trkpt lat="44.59973" lon="0.89459">
        <ele>169.81</ele>
        <time>2014-04-13T09:54:48Z</time>
      </trkpt>
      <trkpt lat="44.59934" lon="0.89413">
        <ele>169.81</ele>
        <time>2014-04-13T09:55:03Z</time>
      </trkpt>
      <trkpt lat="44.59889" lon="0.89359">
        <ele>165</ele>
        <time>2014-04-13T09:55:16Z</time>
      </trkpt>
      <trkpt lat="44.59874" lon="0.89343">
        <ele>163.56</ele>
        <time>2014-04-13T09:55:21Z</time>
      </trkpt>
      <trkpt lat="44.59862" lon="0.89332">
        <ele>163.08</ele>
        <time>2014-04-13T09:55:24Z</time>
      </trkpt>
      <trkpt lat="44.5983" lon="0.89294">
        <ele>161.64</ele>
        <time>2014-04-13T09:55:32Z</time>
      </trkpt>
      <trkpt lat="44.59777" lon="0.89227">
        <ele>159.72</ele>
        <time>2014-04-13T09:55:47Z</time>
      </trkpt>
      <trkpt lat="44.59765" lon="0.89207">
        <ele>159.72</ele>
        <time>2014-04-13T09:55:51Z</time>
      </trkpt>
      <trkpt lat="44.59751" lon="0.89188">
        <ele>159.24</ele>
        <time>2014-04-13T09:55:55Z</time>
      </trkpt>
      <trkpt lat="44.59672" lon="0.89122">
        <ele>165.48</ele>
        <time>2014-04-13T09:56:15Z</time>
      </trkpt>
      <trkpt lat="44.59633" lon="0.89068">
        <ele>172.21</ele>
        <time>2014-04-13T09:56:30Z</time>
      </trkpt>
      <trkpt lat="44.59619" lon="0.8904">
        <ele>174.14</ele>
        <time>2014-04-13T09:56:40Z</time>
      </trkpt>
      <trkpt lat="44.59591" lon="0.88982">
        <ele>172.69</ele>
        <time>2014-04-13T09:56:56Z</time>
      </trkpt>
      <trkpt lat="44.59563" lon="0.88925">
        <ele>170.77</ele>
        <time>2014-04-13T09:57:08Z</time>
      </trkpt>
      <trkpt lat="44.59507" lon="0.88839">
        <ele>162.12</ele>
        <time>2014-04-13T09:57:20Z</time>
      </trkpt>
      <trkpt lat="44.59468" lon="0.88779">
        <ele>153.47</ele>
        <time>2014-04-13T09:57:28Z</time>
      </trkpt>
      <trkpt lat="44.59466" lon="0.88775">
        <ele>152.03</ele>
        <time>2014-04-13T09:57:36Z</time>
      </trkpt>
      <trkpt lat="44.59468" lon="0.8878">
        <ele>156.35</ele>
        <time>2014-04-13T09:58:09Z</time>
      </trkpt>
      <trkpt lat="44.59466" lon="0.88783">
        <ele>159.72</ele>
        <time>2014-04-13T09:58:24Z</time>
      </trkpt>
      <trkpt lat="44.59453" lon="0.88779">
        <ele>160.68</ele>
        <time>2014-04-13T09:58:29Z</time>
      </trkpt>
      <trkpt lat="44.59428" lon="0.88742">
        <ele>167.41</ele>
        <time>2014-04-13T09:58:40Z</time>
      </trkpt>
      <trkpt lat="44.59416" lon="0.88716">
        <ele>171.73</ele>
        <time>2014-04-13T09:58:46Z</time>
      </trkpt>
      <trkpt lat="44.59397" lon="0.88679">
        <ele>174.62</ele>
        <time>2014-04-13T09:58:54Z</time>
      </trkpt>
      <trkpt lat="44.5937" lon="0.88636">
        <ele>178.46</ele>
        <time>2014-04-13T09:59:07Z</time>
      </trkpt>
      <trkpt lat="44.5936" lon="0.88607">
        <ele>173.66</ele>
        <time>2014-04-13T09:59:16Z</time>
      </trkpt>
      <trkpt lat="44.59352" lon="0.88585">
        <ele>170.77</ele>
        <time>2014-04-13T09:59:20Z</time>
      </trkpt>
      <trkpt lat="44.59336" lon="0.88562">
        <ele>167.89</ele>
        <time>2014-04-13T09:59:25Z</time>
      </trkpt>
      <trkpt lat="44.59331" lon="0.88533">
        <ele>165</ele>
        <time>2014-04-13T09:59:29Z</time>
      </trkpt>
      <trkpt lat="44.59314" lon="0.88397">
        <ele>154.91</ele>
        <time>2014-04-13T09:59:41Z</time>
      </trkpt>
      <trkpt lat="44.59308" lon="0.88378">
        <ele>153.95</ele>
        <time>2014-04-13T09:59:43Z</time>
      </trkpt>
      <trkpt lat="44.59266" lon="0.8833">
        <ele>151.54</ele>
        <time>2014-04-13T09:59:52Z</time>
      </trkpt>
      <trkpt lat="44.59257" lon="0.88318">
        <ele>150.58</ele>
        <time>2014-04-13T09:59:54Z</time>
      </trkpt>
      <trkpt lat="44.59226" lon="0.88303">
        <ele>149.14</ele>
        <time>2014-04-13T09:59:59Z</time>
      </trkpt>
      <trkpt lat="44.59175" lon="0.88292">
        <ele>150.58</ele>
        <time>2014-04-13T10:00:07Z</time>
      </trkpt>
      <trkpt lat="44.59149" lon="0.88291">
        <ele>151.06</ele>
        <time>2014-04-13T10:00:11Z</time>
      </trkpt>
      <trkpt lat="44.59122" lon="0.88285">
        <ele>150.58</ele>
        <time>2014-04-13T10:00:15Z</time>
      </trkpt>
      <trkpt lat="44.59095" lon="0.88273">
        <ele>150.1</ele>
        <time>2014-04-13T10:00:19Z</time>
      </trkpt>
      <trkpt lat="44.59077" lon="0.88264">
        <ele>151.06</ele>
        <time>2014-04-13T10:00:22Z</time>
      </trkpt>
      <trkpt lat="44.59035" lon="0.88246">
        <ele>155.39</ele>
        <time>2014-04-13T10:00:33Z</time>
      </trkpt>
      <trkpt lat="44.59025" lon="0.88217">
        <ele>156.83</ele>
        <time>2014-04-13T10:00:44Z</time>
      </trkpt>
      <trkpt lat="44.59008" lon="0.88189">
        <ele>158.75</ele>
        <time>2014-04-13T10:00:58Z</time>
      </trkpt>
      <trkpt lat="44.58991" lon="0.88169">
        <ele>158.27</ele>
        <time>2014-04-13T10:01:09Z</time>
      </trkpt>
      <trkpt lat="44.58998" lon="0.88157">
        <ele>158.27</ele>
        <time>2014-04-13T10:01:16Z</time>
      </trkpt>
      <trkpt lat="44.59025" lon="0.88133">
        <ele>163.08</ele>
        <time>2014-04-13T10:01:32Z</time>
      </trkpt>
      <trkpt lat="44.59035" lon="0.88124">
        <ele>164.04</ele>
        <time>2014-04-13T10:01:38Z</time>
      </trkpt>
      <trkpt lat="44.59071" lon="0.88153">
        <ele>165</ele>
        <time>2014-04-13T10:01:54Z</time>
      </trkpt>
      <trkpt lat="44.591" lon="0.88144">
        <ele>166.45</ele>
        <time>2014-04-13T10:02:05Z</time>
      </trkpt>
      <trkpt lat="44.59121" lon="0.88118">
        <ele>168.37</ele>
        <time>2014-04-13T10:02:18Z</time>
      </trkpt>
      <trkpt lat="44.5913" lon="0.881">
        <ele>168.85</ele>
        <time>2014-04-13T10:02:26Z</time>
      </trkpt>
      <trkpt lat="44.59148" lon="0.88066">
        <ele>172.21</ele>
        <time>2014-04-13T10:02:41Z</time>
      </trkpt>
      <trkpt lat="44.59164" lon="0.88039">
        <ele>174.14</ele>
        <time>2014-04-13T10:02:55Z</time>
      </trkpt>
      <trkpt lat="44.59185" lon="0.88012">
        <ele>177.5</ele>
        <time>2014-04-13T10:03:11Z</time>
      </trkpt>
      <trkpt lat="44.59204" lon="0.87989">
        <ele>180.38</ele>
        <time>2014-04-13T10:03:24Z</time>
      </trkpt>
      <trkpt lat="44.59226" lon="0.87956">
        <ele>178.94</ele>
        <time>2014-04-13T10:03:39Z</time>
      </trkpt>
      <trkpt lat="44.59234" lon="0.87946">
        <ele>178.94</ele>
        <time>2014-04-13T10:03:44Z</time>
      </trkpt>
      <trkpt lat="44.59243" lon="0.87925">
        <ele>180.87</ele>
        <time>2014-04-13T10:03:53Z</time>
      </trkpt>
      <trkpt lat="44.59262" lon="0.879">
        <ele>185.19</ele>
        <time>2014-04-13T10:04:07Z</time>
      </trkpt>
      <trkpt lat="44.59282" lon="0.87879">
        <ele>187.59</ele>
        <time>2014-04-13T10:04:21Z</time>
      </trkpt>
      <trkpt lat="44.5931" lon="0.87854">
        <ele>189.04</ele>
        <time>2014-04-13T10:04:40Z</time>
      </trkpt>
      <trkpt lat="44.59335" lon="0.8784">
        <ele>188.08</ele>
        <time>2014-04-13T10:04:53Z</time>
      </trkpt>
      <trkpt lat="44.59373" lon="0.87817">
        <ele>188.08</ele>
        <time>2014-04-13T10:05:05Z</time>
      </trkpt>
      <trkpt lat="44.59379" lon="0.87811">
        <ele>188.08</ele>
        <time>2014-04-13T10:05:07Z</time>
      </trkpt>
      <trkpt lat="44.59385" lon="0.87802">
        <ele>187.59</ele>
        <time>2014-04-13T10:05:09Z</time>
      </trkpt>
      <trkpt lat="44.59431" lon="0.87732">
        <ele>183.75</ele>
        <time>2014-04-13T10:05:20Z</time>
      </trkpt>
      <trkpt lat="44.59444" lon="0.87716">
        <ele>183.27</ele>
        <time>2014-04-13T10:05:22Z</time>
      </trkpt>
      <trkpt lat="44.5949" lon="0.87635">
        <ele>179.42</ele>
        <time>2014-04-13T10:05:32Z</time>
      </trkpt>
      <trkpt lat="44.59499" lon="0.8763">
        <ele>178.94</ele>
        <time>2014-04-13T10:05:35Z</time>
      </trkpt>
      <trkpt lat="44.59513" lon="0.87641">
        <ele>178.46</ele>
        <time>2014-04-13T10:05:39Z</time>
      </trkpt>
      <trkpt lat="44.5952" lon="0.87651">
        <ele>178.46</ele>
        <time>2014-04-13T10:05:41Z</time>
      </trkpt>
      <trkpt lat="44.59563" lon="0.87701">
        <ele>179.9</ele>
        <time>2014-04-13T10:05:52Z</time>
      </trkpt>
      <trkpt lat="44.59581" lon="0.87697">
        <ele>183.27</ele>
        <time>2014-04-13T10:05:58Z</time>
      </trkpt>
      <trkpt lat="44.59586" lon="0.87681">
        <ele>183.75</ele>
        <time>2014-04-13T10:06:01Z</time>
      </trkpt>
      <trkpt lat="44.59591" lon="0.87666">
        <ele>183.27</ele>
        <time>2014-04-13T10:06:04Z</time>
      </trkpt>
      <trkpt lat="44.59622" lon="0.87577">
        <ele>180.38</ele>
        <time>2014-04-13T10:06:18Z</time>
      </trkpt>
      <trkpt lat="44.59637" lon="0.87543">
        <ele>178.46</ele>
        <time>2014-04-13T10:06:22Z</time>
      </trkpt>
      <trkpt lat="44.59665" lon="0.87511">
        <ele>176.06</ele>
        <time>2014-04-13T10:06:28Z</time>
      </trkpt>
      <trkpt lat="44.59689" lon="0.87481">
        <ele>173.66</ele>
        <time>2014-04-13T10:06:33Z</time>
      </trkpt>
      <trkpt lat="44.59713" lon="0.87448">
        <ele>171.25</ele>
        <time>2014-04-13T10:06:38Z</time>
      </trkpt>
      <trkpt lat="44.59727" lon="0.8743">
        <ele>169.81</ele>
        <time>2014-04-13T10:06:41Z</time>
      </trkpt>
      <trkpt lat="44.59786" lon="0.87334">
        <ele>163.08</ele>
        <time>2014-04-13T10:06:53Z</time>
      </trkpt>
      <trkpt lat="44.59791" lon="0.87324">
        <ele>163.08</ele>
        <time>2014-04-13T10:06:54Z</time>
      </trkpt>
      <trkpt lat="44.59858" lon="0.8722">
        <ele>160.68</ele>
        <time>2014-04-13T10:07:05Z</time>
      </trkpt>
      <trkpt lat="44.59907" lon="0.87192">
        <ele>160.2</ele>
        <time>2014-04-13T10:07:13Z</time>
      </trkpt>
      <trkpt lat="44.59916" lon="0.87198">
        <ele>160.2</ele>
        <time>2014-04-13T10:07:15Z</time>
      </trkpt>
      <trkpt lat="44.59946" lon="0.87223">
        <ele>159.24</ele>
        <time>2014-04-13T10:07:22Z</time>
      </trkpt>
      <trkpt lat="44.59979" lon="0.87276">
        <ele>155.87</ele>
        <time>2014-04-13T10:07:32Z</time>
      </trkpt>
      <trkpt lat="44.60006" lon="0.87294">
        <ele>151.54</ele>
        <time>2014-04-13T10:07:37Z</time>
      </trkpt>
      <trkpt lat="44.60014" lon="0.87295">
        <ele>150.58</ele>
        <time>2014-04-13T10:07:39Z</time>
      </trkpt>
      <trkpt lat="44.60016" lon="0.87292">
        <ele>151.06</ele>
        <time>2014-04-13T10:07:50Z</time>
      </trkpt>
      <trkpt lat="44.60018" lon="0.87292">
        <ele>154.91</ele>
        <time>2014-04-13T10:08:13Z</time>
      </trkpt>
      <trkpt lat="44.60026" lon="0.87291">
        <ele>154.91</ele>
        <time>2014-04-13T10:08:17Z</time>
      </trkpt>
      <trkpt lat="44.60034" lon="0.8727">
        <ele>153.95</ele>
        <time>2014-04-13T10:08:27Z</time>
      </trkpt>
      <trkpt lat="44.60033" lon="0.87248">
        <ele>152.51</ele>
        <time>2014-04-13T10:08:37Z</time>
      </trkpt>
      <trkpt lat="44.60033" lon="0.87253">
        <ele>151.54</ele>
        <time>2014-04-13T10:08:45Z</time>
      </trkpt>
      <trkpt lat="44.60036" lon="0.87278">
        <ele>150.58</ele>
        <time>2014-04-13T10:08:55Z</time>
      </trkpt>
      <trkpt lat="44.60044" lon="0.8728">
        <ele>148.18</ele>
        <time>2014-04-13T10:09:06Z</time>
      </trkpt>
      <trkpt lat="44.60042" lon="0.87281">
        <ele>149.62</ele>
        <time>2014-04-13T10:09:19Z</time>
      </trkpt>
      <trkpt lat="44.6004" lon="0.87284">
        <ele>151.54</ele>
        <time>2014-04-13T10:09:44Z</time>
      </trkpt>
      <trkpt lat="44.60038" lon="0.87288">
        <ele>151.06</ele>
        <time>2014-04-13T10:10:08Z</time>
      </trkpt>
      <trkpt lat="44.60038" lon="0.87287">
        <ele>150.1</ele>
        <time>2014-04-13T10:10:39Z</time>
      </trkpt>
      <trkpt lat="44.60037" lon="0.87286">
        <ele>151.54</ele>
        <time>2014-04-13T10:10:44Z</time>
      </trkpt>
      <trkpt lat="44.60032" lon="0.87269">
        <ele>152.51</ele>
        <time>2014-04-13T10:10:50Z</time>
      </trkpt>
      <trkpt lat="44.60032" lon="0.87215">
        <ele>151.54</ele>
        <time>2014-04-13T10:11:01Z</time>
      </trkpt>
      <trkpt lat="44.60027" lon="0.87152">
        <ele>151.06</ele>
        <time>2014-04-13T10:11:18Z</time>
      </trkpt>
      <trkpt lat="44.60024" lon="0.87118">
        <ele>151.54</ele>
        <time>2014-04-13T10:11:30Z</time>
      </trkpt>
      <trkpt lat="44.60026" lon="0.87116">
        <ele>152.03</ele>
        <time>2014-04-13T10:11:32Z</time>
      </trkpt>
      <trkpt lat="44.60027" lon="0.87115">
        <ele>152.03</ele>
        <time>2014-04-13T10:11:34Z</time>
      </trkpt>
      <trkpt lat="44.60038" lon="0.87122">
        <ele>150.58</ele>
        <time>2014-04-13T10:11:48Z</time>
      </trkpt>
      <trkpt lat="44.6004" lon="0.87125">
        <ele>150.58</ele>
        <time>2014-04-13T10:12:01Z</time>
      </trkpt>
      <trkpt lat="44.60037" lon="0.87121">
        <ele>151.06</ele>
        <time>2014-04-13T10:12:15Z</time>
      </trkpt>
      <trkpt lat="44.60038" lon="0.87119">
        <ele>149.14</ele>
        <time>2014-04-13T10:12:43Z</time>
      </trkpt>
      <trkpt lat="44.60037" lon="0.87119">
        <ele>154.43</ele>
        <time>2014-04-13T10:13:10Z</time>
      </trkpt>
      <trkpt lat="44.60037" lon="0.87118">
        <ele>152.99</ele>
        <time>2014-04-13T10:13:47Z</time>
      </trkpt>
      <trkpt lat="44.60038" lon="0.87121">
        <ele>149.62</ele>
        <time>2014-04-13T10:14:21Z</time>
      </trkpt>
      <trkpt lat="44.60037" lon="0.8712">
        <ele>152.03</ele>
        <time>2014-04-13T10:15:01Z</time>
      </trkpt>
      <trkpt lat="44.60037" lon="0.87126">
        <ele>149.14</ele>
        <time>2014-04-13T10:15:41Z</time>
      </trkpt>
      <trkpt lat="44.60041" lon="0.87124">
        <ele>151.06</ele>
        <time>2014-04-13T10:16:19Z</time>
      </trkpt>
      <trkpt lat="44.60038" lon="0.87118">
        <ele>154.91</ele>
        <time>2014-04-13T10:16:54Z</time>
      </trkpt>
      <trkpt lat="44.60039" lon="0.87117">
        <ele>153.95</ele>
        <time>2014-04-13T10:17:34Z</time>
      </trkpt>
      <trkpt lat="44.60038" lon="0.87122">
        <ele>153.95</ele>
        <time>2014-04-13T10:18:13Z</time>
      </trkpt>
      <trkpt lat="44.60039" lon="0.8712">
        <ele>154.91</ele>
        <time>2014-04-13T10:19:08Z</time>
      </trkpt>
      <trkpt lat="44.60041" lon="0.87117">
        <ele>152.03</ele>
        <time>2014-04-13T10:19:40Z</time>
      </trkpt>
      <trkpt lat="44.60038" lon="0.87119">
        <ele>156.83</ele>
        <time>2014-04-13T10:20:25Z</time>
      </trkpt>
      <trkpt lat="44.60039" lon="0.8712">
        <ele>152.99</ele>
        <time>2014-04-13T10:21:03Z</time>
      </trkpt>
      <trkpt lat="44.60038" lon="0.87121">
        <ele>154.43</ele>
        <time>2014-04-13T10:21:48Z</time>
      </trkpt>
      <trkpt lat="44.60037" lon="0.87122">
        <ele>152.99</ele>
        <time>2014-04-13T10:22:36Z</time>
      </trkpt>
      <trkpt lat="44.60037" lon="0.8712">
        <ele>152.51</ele>
        <time>2014-04-13T10:23:25Z</time>
      </trkpt>
      <trkpt lat="44.60037" lon="0.87124">
        <ele>152.51</ele>
        <time>2014-04-13T10:24:19Z</time>
      </trkpt>
      <trkpt lat="44.60036" lon="0.87122">
        <ele>153.95</ele>
        <time>2014-04-13T10:25:13Z</time>
      </trkpt>
      <trkpt lat="44.60034" lon="0.87124">
        <ele>151.06</ele>
        <time>2014-04-13T10:25:55Z</time>
      </trkpt>
      <trkpt lat="44.60037" lon="0.87123">
        <ele>151.06</ele>
        <time>2014-04-13T10:26:26Z</time>
      </trkpt>
      <trkpt lat="44.60023" lon="0.87107">
        <ele>151.54</ele>
        <time>2014-04-13T10:26:35Z</time>
      </trkpt>
      <trkpt lat="44.60034" lon="0.87094">
        <ele>152.51</ele>
        <time>2014-04-13T10:26:42Z</time>
      </trkpt>
      <trkpt lat="44.60078" lon="0.87082">
        <ele>158.27</ele>
        <time>2014-04-13T10:26:58Z</time>
      </trkpt>
      <trkpt lat="44.60125" lon="0.87067">
        <ele>164.04</ele>
        <time>2014-04-13T10:27:14Z</time>
      </trkpt>
      <trkpt lat="44.60157" lon="0.87047">
        <ele>165.96</ele>
        <time>2014-04-13T10:27:24Z</time>
      </trkpt>
      <trkpt lat="44.60161" lon="0.87044">
        <ele>165.96</ele>
        <time>2014-04-13T10:27:25Z</time>
      </trkpt>
      <trkpt lat="44.60212" lon="0.87011">
        <ele>168.85</ele>
        <time>2014-04-13T10:27:39Z</time>
      </trkpt>
      <trkpt lat="44.60253" lon="0.86994">
        <ele>171.73</ele>
        <time>2014-04-13T10:27:51Z</time>
      </trkpt>
      <trkpt lat="44.60285" lon="0.86977">
        <ele>173.66</ele>
        <time>2014-04-13T10:28:05Z</time>
      </trkpt>
      <trkpt lat="44.60312" lon="0.86964">
        <ele>174.14</ele>
        <time>2014-04-13T10:28:15Z</time>
      </trkpt>
      <trkpt lat="44.6032" lon="0.86946">
        <ele>174.62</ele>
        <time>2014-04-13T10:28:19Z</time>
      </trkpt>
      <trkpt lat="44.60317" lon="0.86859">
        <ele>169.81</ele>
        <time>2014-04-13T10:28:29Z</time>
      </trkpt>
      <trkpt lat="44.60314" lon="0.86762">
        <ele>162.12</ele>
        <time>2014-04-13T10:28:37Z</time>
      </trkpt>
      <trkpt lat="44.60328" lon="0.86744">
        <ele>158.75</ele>
        <time>2014-04-13T10:28:42Z</time>
      </trkpt>
      <trkpt lat="44.60383" lon="0.86754">
        <ele>157.79</ele>
        <time>2014-04-13T10:28:57Z</time>
      </trkpt>
      <trkpt lat="44.60429" lon="0.86752">
        <ele>159.24</ele>
        <time>2014-04-13T10:29:10Z</time>
      </trkpt>
      <trkpt lat="44.60473" lon="0.86714">
        <ele>161.64</ele>
        <time>2014-04-13T10:29:24Z</time>
      </trkpt>
      <trkpt lat="44.60516" lon="0.86655">
        <ele>163.56</ele>
        <time>2014-04-13T10:29:40Z</time>
      </trkpt>
      <trkpt lat="44.60554" lon="0.86663">
        <ele>166.93</ele>
        <time>2014-04-13T10:29:52Z</time>
      </trkpt>
      <trkpt lat="44.60592" lon="0.86675">
        <ele>171.73</ele>
        <time>2014-04-13T10:30:09Z</time>
      </trkpt>
      <trkpt lat="44.60635" lon="0.8668">
        <ele>175.1</ele>
        <time>2014-04-13T10:30:28Z</time>
      </trkpt>
      <trkpt lat="44.60667" lon="0.86689">
        <ele>178.46</ele>
        <time>2014-04-13T10:30:43Z</time>
      </trkpt>
      <trkpt lat="44.60699" lon="0.86709">
        <ele>179.9</ele>
        <time>2014-04-13T10:30:57Z</time>
      </trkpt>
      <trkpt lat="44.6074" lon="0.86746">
        <ele>179.9</ele>
        <time>2014-04-13T10:31:12Z</time>
      </trkpt>
      <trkpt lat="44.60785" lon="0.86769">
        <ele>183.75</ele>
        <time>2014-04-13T10:31:24Z</time>
      </trkpt>
      <trkpt lat="44.60832" lon="0.86778">
        <ele>185.19</ele>
        <time>2014-04-13T10:31:37Z</time>
      </trkpt>
      <trkpt lat="44.60872" lon="0.86747">
        <ele>184.71</ele>
        <time>2014-04-13T10:31:47Z</time>
      </trkpt>
      <trkpt lat="44.60885" lon="0.86735">
        <ele>183.75</ele>
        <time>2014-04-13T10:31:49Z</time>
      </trkpt>
      <trkpt lat="44.60933" lon="0.86712">
        <ele>180.38</ele>
        <time>2014-04-13T10:31:55Z</time>
      </trkpt>
      <trkpt lat="44.60996" lon="0.86668">
        <ele>180.38</ele>
        <time>2014-04-13T10:32:05Z</time>
      </trkpt>
      <trkpt lat="44.61025" lon="0.86648">
        <ele>181.35</ele>
        <time>2014-04-13T10:32:10Z</time>
      </trkpt>
      <trkpt lat="44.61055" lon="0.86641">
        <ele>182.31</ele>
        <time>2014-04-13T10:32:15Z</time>
      </trkpt>
      <trkpt lat="44.61075" lon="0.86639">
        <ele>182.79</ele>
        <time>2014-04-13T10:32:19Z</time>
      </trkpt>
      <trkpt lat="44.61109" lon="0.86625">
        <ele>181.83</ele>
        <time>2014-04-13T10:32:25Z</time>
      </trkpt>
      <trkpt lat="44.61133" lon="0.8661">
        <ele>181.83</ele>
        <time>2014-04-13T10:32:30Z</time>
      </trkpt>
      <trkpt lat="44.61136" lon="0.86622">
        <ele>181.83</ele>
        <time>2014-04-13T10:32:34Z</time>
      </trkpt>
      <trkpt lat="44.61135" lon="0.86634">
        <ele>181.35</ele>
        <time>2014-04-13T10:32:36Z</time>
      </trkpt>
      <trkpt lat="44.61134" lon="0.86662">
        <ele>179.42</ele>
        <time>2014-04-13T10:32:40Z</time>
      </trkpt>
      <trkpt lat="44.61124" lon="0.86692">
        <ele>177.02</ele>
        <time>2014-04-13T10:32:46Z</time>
      </trkpt>
      <trkpt lat="44.61118" lon="0.8671">
        <ele>178.94</ele>
        <time>2014-04-13T10:32:56Z</time>
      </trkpt>
      <trkpt lat="44.6111" lon="0.8675">
        <ele>177.98</ele>
        <time>2014-04-13T10:33:05Z</time>
      </trkpt>
      <trkpt lat="44.61097" lon="0.86812">
        <ele>174.62</ele>
        <time>2014-04-13T10:33:14Z</time>
      </trkpt>
      <trkpt lat="44.61093" lon="0.86822">
        <ele>174.14</ele>
        <time>2014-04-13T10:33:16Z</time>
      </trkpt>
      <trkpt lat="44.61079" lon="0.86878">
        <ele>172.69</ele>
        <time>2014-04-13T10:33:27Z</time>
      </trkpt>
      <trkpt lat="44.61061" lon="0.86914">
        <ele>169.33</ele>
        <time>2014-04-13T10:33:36Z</time>
      </trkpt>
      <trkpt lat="44.61054" lon="0.86927">
        <ele>167.89</ele>
        <time>2014-04-13T10:33:39Z</time>
      </trkpt>
      <trkpt lat="44.61048" lon="0.86973">
        <ele>164.52</ele>
        <time>2014-04-13T10:33:45Z</time>
      </trkpt>
      <trkpt lat="44.61039" lon="0.87002">
        <ele>163.08</ele>
        <time>2014-04-13T10:33:50Z</time>
      </trkpt>
      <trkpt lat="44.61034" lon="0.87029">
        <ele>160.68</ele>
        <time>2014-04-13T10:33:55Z</time>
      </trkpt>
      <trkpt lat="44.61042" lon="0.87075">
        <ele>157.31</ele>
        <time>2014-04-13T10:34:03Z</time>
      </trkpt>
      <trkpt lat="44.61039" lon="0.87118">
        <ele>153.95</ele>
        <time>2014-04-13T10:34:11Z</time>
      </trkpt>
      <trkpt lat="44.6104" lon="0.87134">
        <ele>152.99</ele>
        <time>2014-04-13T10:34:14Z</time>
      </trkpt>
      <trkpt lat="44.61031" lon="0.87161">
        <ele>153.47</ele>
        <time>2014-04-13T10:34:19Z</time>
      </trkpt>
      <trkpt lat="44.61017" lon="0.87197">
        <ele>154.91</ele>
        <time>2014-04-13T10:34:25Z</time>
      </trkpt>
      <trkpt lat="44.61" lon="0.8724">
        <ele>156.35</ele>
        <time>2014-04-13T10:34:32Z</time>
      </trkpt>
      <trkpt lat="44.60987" lon="0.87268">
        <ele>157.79</ele>
        <time>2014-04-13T10:34:37Z</time>
      </trkpt>
      <trkpt lat="44.60972" lon="0.8729">
        <ele>158.27</ele>
        <time>2014-04-13T10:34:41Z</time>
      </trkpt>
      <trkpt lat="44.60963" lon="0.87307">
        <ele>157.31</ele>
        <time>2014-04-13T10:34:44Z</time>
      </trkpt>
      <trkpt lat="44.60924" lon="0.87364">
        <ele>152.99</ele>
        <time>2014-04-13T10:34:53Z</time>
      </trkpt>
      <trkpt lat="44.60907" lon="0.87382">
        <ele>151.06</ele>
        <time>2014-04-13T10:34:57Z</time>
      </trkpt>
      <trkpt lat="44.60895" lon="0.87403">
        <ele>149.62</ele>
        <time>2014-04-13T10:35:01Z</time>
      </trkpt>
      <trkpt lat="44.60885" lon="0.87432">
        <ele>149.14</ele>
        <time>2014-04-13T10:35:05Z</time>
      </trkpt>
      <trkpt lat="44.60881" lon="0.8745">
        <ele>148.18</ele>
        <time>2014-04-13T10:35:08Z</time>
      </trkpt>
      <trkpt lat="44.60871" lon="0.875">
        <ele>151.06</ele>
        <time>2014-04-13T10:35:17Z</time>
      </trkpt>
      <trkpt lat="44.6085" lon="0.87554">
        <ele>153.95</ele>
        <time>2014-04-13T10:35:29Z</time>
      </trkpt>
      <trkpt lat="44.60823" lon="0.87579">
        <ele>160.2</ele>
        <time>2014-04-13T10:35:40Z</time>
      </trkpt>
      <trkpt lat="44.60784" lon="0.87606">
        <ele>161.64</ele>
        <time>2014-04-13T10:35:55Z</time>
      </trkpt>
      <trkpt lat="44.60783" lon="0.87606">
        <ele>161.64</ele>
        <time>2014-04-13T10:35:56Z</time>
      </trkpt>
      <trkpt lat="44.60772" lon="0.87609">
        <ele>162.12</ele>
        <time>2014-04-13T10:36:04Z</time>
      </trkpt>
      <trkpt lat="44.60756" lon="0.87606">
        <ele>163.08</ele>
        <time>2014-04-13T10:36:09Z</time>
      </trkpt>
      <trkpt lat="44.60739" lon="0.87621">
        <ele>164.04</ele>
        <time>2014-04-13T10:36:15Z</time>
      </trkpt>
      <trkpt lat="44.60726" lon="0.87638">
        <ele>162.6</ele>
        <time>2014-04-13T10:36:19Z</time>
      </trkpt>
      <trkpt lat="44.60715" lon="0.87662">
        <ele>161.64</ele>
        <time>2014-04-13T10:36:23Z</time>
      </trkpt>
      <trkpt lat="44.6071" lon="0.87683">
        <ele>161.64</ele>
        <time>2014-04-13T10:36:26Z</time>
      </trkpt>
      <trkpt lat="44.60694" lon="0.87734">
        <ele>163.08</ele>
        <time>2014-04-13T10:36:38Z</time>
      </trkpt>
      <trkpt lat="44.6067" lon="0.87781">
        <ele>167.41</ele>
        <time>2014-04-13T10:36:52Z</time>
      </trkpt>
      <trkpt lat="44.60643" lon="0.87787">
        <ele>168.85</ele>
        <time>2014-04-13T10:37:04Z</time>
      </trkpt>
      <trkpt lat="44.60628" lon="0.87778">
        <ele>169.33</ele>
        <time>2014-04-13T10:37:10Z</time>
      </trkpt>
      <trkpt lat="44.60621" lon="0.87773">
        <ele>168.37</ele>
        <time>2014-04-13T10:37:12Z</time>
      </trkpt>
      <trkpt lat="44.60553" lon="0.87771">
        <ele>166.93</ele>
        <time>2014-04-13T10:37:25Z</time>
      </trkpt>
      <trkpt lat="44.60529" lon="0.87771">
        <ele>167.41</ele>
        <time>2014-04-13T10:37:31Z</time>
      </trkpt>
      <trkpt lat="44.6053" lon="0.87792">
        <ele>168.37</ele>
        <time>2014-04-13T10:37:38Z</time>
      </trkpt>
      <trkpt lat="44.60555" lon="0.87839">
        <ele>170.29</ele>
        <time>2014-04-13T10:37:51Z</time>
      </trkpt>
      <trkpt lat="44.60585" lon="0.87885">
        <ele>175.1</ele>
        <time>2014-04-13T10:38:06Z</time>
      </trkpt>
      <trkpt lat="44.60602" lon="0.87926">
        <ele>177.02</ele>
        <time>2014-04-13T10:38:17Z</time>
      </trkpt>
      <trkpt lat="44.60608" lon="0.87944">
        <ele>176.54</ele>
        <time>2014-04-13T10:38:21Z</time>
      </trkpt>
      <trkpt lat="44.60613" lon="0.87966">
        <ele>176.54</ele>
        <time>2014-04-13T10:38:25Z</time>
      </trkpt>
      <trkpt lat="44.6064" lon="0.88023">
        <ele>179.9</ele>
        <time>2014-04-13T10:38:38Z</time>
      </trkpt>
      <trkpt lat="44.60659" lon="0.88063">
        <ele>180.38</ele>
        <time>2014-04-13T10:38:49Z</time>
      </trkpt>
      <trkpt lat="44.60679" lon="0.88101">
        <ele>183.75</ele>
        <time>2014-04-13T10:39:00Z</time>
      </trkpt>
      <trkpt lat="44.60704" lon="0.88132">
        <ele>187.59</ele>
        <time>2014-04-13T10:39:11Z</time>
      </trkpt>
      <trkpt lat="44.60739" lon="0.88144">
        <ele>192.88</ele>
        <time>2014-04-13T10:39:24Z</time>
      </trkpt>
      <trkpt lat="44.60776" lon="0.88159">
        <ele>191.44</ele>
        <time>2014-04-13T10:39:35Z</time>
      </trkpt>
      <trkpt lat="44.6081" lon="0.88157">
        <ele>193.36</ele>
        <time>2014-04-13T10:39:46Z</time>
      </trkpt>
      <trkpt lat="44.60822" lon="0.8815">
        <ele>195.77</ele>
        <time>2014-04-13T10:39:51Z</time>
      </trkpt>
      <trkpt lat="44.60834" lon="0.8816">
        <ele>196.73</ele>
        <time>2014-04-13T10:39:57Z</time>
      </trkpt>
      <trkpt lat="44.60839" lon="0.88194">
        <ele>196.25</ele>
        <time>2014-04-13T10:40:10Z</time>
      </trkpt>
      <trkpt lat="44.60842" lon="0.88231">
        <ele>194.8</ele>
        <time>2014-04-13T10:40:21Z</time>
      </trkpt>
      <trkpt lat="44.60843" lon="0.88272">
        <ele>198.17</ele>
        <time>2014-04-13T10:40:33Z</time>
      </trkpt>
      <trkpt lat="44.60847" lon="0.88322">
        <ele>202.01</ele>
        <time>2014-04-13T10:40:47Z</time>
      </trkpt>
      <trkpt lat="44.60847" lon="0.88332">
        <ele>202.01</ele>
        <time>2014-04-13T10:40:50Z</time>
      </trkpt>
      <trkpt lat="44.60864" lon="0.88343">
        <ele>202.49</ele>
        <time>2014-04-13T10:40:58Z</time>
      </trkpt>
      <trkpt lat="44.60866" lon="0.88344">
        <ele>202.01</ele>
        <time>2014-04-13T10:40:59Z</time>
      </trkpt>
      <trkpt lat="44.60897" lon="0.88355">
        <ele>198.17</ele>
        <time>2014-04-13T10:41:09Z</time>
      </trkpt>
      <trkpt lat="44.60927" lon="0.8836">
        <ele>198.17</ele>
        <time>2014-04-13T10:41:17Z</time>
      </trkpt>
      <trkpt lat="44.60932" lon="0.88367">
        <ele>199.13</ele>
        <time>2014-04-13T10:41:19Z</time>
      </trkpt>
      <trkpt lat="44.60935" lon="0.88378">
        <ele>199.61</ele>
        <time>2014-04-13T10:41:21Z</time>
      </trkpt>
      <trkpt lat="44.60945" lon="0.88402">
        <ele>198.65</ele>
        <time>2014-04-13T10:41:29Z</time>
      </trkpt>
      <trkpt lat="44.60969" lon="0.88427">
        <ele>200.09</ele>
        <time>2014-04-13T10:41:36Z</time>
      </trkpt>
      <trkpt lat="44.60973" lon="0.88434">
        <ele>199.61</ele>
        <time>2014-04-13T10:41:37Z</time>
      </trkpt>
      <trkpt lat="44.61003" lon="0.88488">
        <ele>196.73</ele>
        <time>2014-04-13T10:41:46Z</time>
      </trkpt>
      <trkpt lat="44.61005" lon="0.88513">
        <ele>194.32</ele>
        <time>2014-04-13T10:41:57Z</time>
      </trkpt>
      <trkpt lat="44.61018" lon="0.88534">
        <ele>192.88</ele>
        <time>2014-04-13T10:42:10Z</time>
      </trkpt>
      <trkpt lat="44.61032" lon="0.88559">
        <ele>190</ele>
        <time>2014-04-13T10:42:15Z</time>
      </trkpt>
      <trkpt lat="44.61037" lon="0.88587">
        <ele>188.08</ele>
        <time>2014-04-13T10:42:19Z</time>
      </trkpt>
      <trkpt lat="44.61036" lon="0.88686">
        <ele>180.87</ele>
        <time>2014-04-13T10:42:28Z</time>
      </trkpt>
      <trkpt lat="44.61037" lon="0.8871">
        <ele>178.94</ele>
        <time>2014-04-13T10:42:30Z</time>
      </trkpt>
      <trkpt lat="44.61004" lon="0.88749">
        <ele>174.14</ele>
        <time>2014-04-13T10:42:36Z</time>
      </trkpt>
      <trkpt lat="44.60997" lon="0.88755">
        <ele>173.66</ele>
        <time>2014-04-13T10:42:37Z</time>
      </trkpt>
      <trkpt lat="44.60969" lon="0.88777">
        <ele>172.21</ele>
        <time>2014-04-13T10:42:41Z</time>
      </trkpt>
      <trkpt lat="44.6091" lon="0.88831">
        <ele>171.73</ele>
        <time>2014-04-13T10:42:51Z</time>
      </trkpt>
      <trkpt lat="44.60857" lon="0.88868">
        <ele>174.62</ele>
        <time>2014-04-13T10:43:03Z</time>
      </trkpt>
      <trkpt lat="44.60798" lon="0.88911">
        <ele>173.66</ele>
        <time>2014-04-13T10:43:14Z</time>
      </trkpt>
      <trkpt lat="44.60774" lon="0.88924">
        <ele>173.66</ele>
        <time>2014-04-13T10:43:18Z</time>
      </trkpt>
      <trkpt lat="44.60732" lon="0.88946">
        <ele>174.14</ele>
        <time>2014-04-13T10:43:25Z</time>
      </trkpt>
      <trkpt lat="44.60708" lon="0.88963">
        <ele>175.1</ele>
        <time>2014-04-13T10:43:29Z</time>
      </trkpt>
      <trkpt lat="44.60674" lon="0.88975">
        <ele>177.5</ele>
        <time>2014-04-13T10:43:36Z</time>
      </trkpt>
      <trkpt lat="44.606" lon="0.88998">
        <ele>177.5</ele>
        <time>2014-04-13T10:43:47Z</time>
      </trkpt>
      <trkpt lat="44.6053" lon="0.89032">
        <ele>175.58</ele>
        <time>2014-04-13T10:43:59Z</time>
      </trkpt>
      <trkpt lat="44.60526" lon="0.89035">
        <ele>175.58</ele>
        <time>2014-04-13T10:44:00Z</time>
      </trkpt>
      <trkpt lat="44.60513" lon="0.89044">
        <ele>175.1</ele>
        <time>2014-04-13T10:44:03Z</time>
      </trkpt>
      <trkpt lat="44.60501" lon="0.89052">
        <ele>174.62</ele>
        <time>2014-04-13T10:44:06Z</time>
      </trkpt>
      <trkpt lat="44.60484" lon="0.89062">
        <ele>174.14</ele>
        <time>2014-04-13T10:44:10Z</time>
      </trkpt>
      <trkpt lat="44.60463" lon="0.89071">
        <ele>173.17</ele>
        <time>2014-04-13T10:44:14Z</time>
      </trkpt>
      <trkpt lat="44.60373" lon="0.89131">
        <ele>168.37</ele>
        <time>2014-04-13T10:44:26Z</time>
      </trkpt>
      <trkpt lat="44.60362" lon="0.89137">
        <ele>167.41</ele>
        <time>2014-04-13T10:44:28Z</time>
      </trkpt>
      <trkpt lat="44.60333" lon="0.8916">
        <ele>165</ele>
        <time>2014-04-13T10:44:33Z</time>
      </trkpt>
      <trkpt lat="44.603" lon="0.89207">
        <ele>162.6</ele>
        <time>2014-04-13T10:44:39Z</time>
      </trkpt>
      <trkpt lat="44.60275" lon="0.89227">
        <ele>162.12</ele>
        <time>2014-04-13T10:44:43Z</time>
      </trkpt>
      <trkpt lat="44.60223" lon="0.8925">
        <ele>164.52</ele>
        <time>2014-04-13T10:44:51Z</time>
      </trkpt>
      <trkpt lat="44.60189" lon="0.89275">
        <ele>163.08</ele>
        <time>2014-04-13T10:44:56Z</time>
      </trkpt>
      <trkpt lat="44.60177" lon="0.8929">
        <ele>162.12</ele>
        <time>2014-04-13T10:44:58Z</time>
      </trkpt>
      <trkpt lat="44.60132" lon="0.89308">
        <ele>163.08</ele>
        <time>2014-04-13T10:45:05Z</time>
      </trkpt>
      <trkpt lat="44.60121" lon="0.89367">
        <ele>165.48</ele>
        <time>2014-04-13T10:45:17Z</time>
      </trkpt>
      <trkpt lat="44.60101" lon="0.8943">
        <ele>165.48</ele>
        <time>2014-04-13T10:45:30Z</time>
      </trkpt>
      <trkpt lat="44.60079" lon="0.89478">
        <ele>165.96</ele>
        <time>2014-04-13T10:45:40Z</time>
      </trkpt>
      <trkpt lat="44.60071" lon="0.89494">
        <ele>164.52</ele>
        <time>2014-04-13T10:45:44Z</time>
      </trkpt>
      <trkpt lat="44.60021" lon="0.89524">
        <ele>162.6</ele>
        <time>2014-04-13T10:45:56Z</time>
      </trkpt>
      <trkpt lat="44.60011" lon="0.89556">
        <ele>160.68</ele>
        <time>2014-04-13T10:46:02Z</time>
      </trkpt>
      <trkpt lat="44.60003" lon="0.89659">
        <ele>159.24</ele>
        <time>2014-04-13T10:46:16Z</time>
      </trkpt>
      <trkpt lat="44.59982" lon="0.89692">
        <ele>158.27</ele>
        <time>2014-04-13T10:46:22Z</time>
      </trkpt>
      <trkpt lat="44.5991" lon="0.89748">
        <ele>154.91</ele>
        <time>2014-04-13T10:46:33Z</time>
      </trkpt>
      <trkpt lat="44.59879" lon="0.89742">
        <ele>153.47</ele>
        <time>2014-04-13T10:46:40Z</time>
      </trkpt>
      <trkpt lat="44.59877" lon="0.89731">
        <ele>152.51</ele>
        <time>2014-04-13T10:46:49Z</time>
      </trkpt>
    </trkseg>
  </trk>
</gpx>